Time;durP1;ratioP1;P1;durP2;ratioP2;P2;SDS_P1;SDS_P2;PMS_P1;PMS_P2;Temp;Humidity;BMP_temperature;BMP_pressure;BME280_temperature;BME280_humidity;BME280_pressure;Samples;Min_cycle;Max_cycle;Signal;HPM_P1;HPM_P2
2021/06/19 00:00:13;;;;;;;9.20;3.60;;;25.30;98.40;;;;;;5093225;28;20238;-59
2021/06/19 00:02:40;;;;;;;6.10;3.10;;;25.40;98.20;;;;;;5094875;28;20214;-59
2021/06/19 00:05:08;;;;;;;10.23;3.40;;;25.40;97.90;;;;;;5094516;28;20227;-59
2021/06/19 00:07:36;;;;;;;5.93;3.38;;;25.50;97.70;;;;;;5094889;28;20215;-58
2021/06/19 00:10:05;;;;;;;7.53;3.58;;;25.50;97.60;;;;;;5094812;28;20224;-59
2021/06/19 00:12:34;;;;;;;7.53;3.45;;;25.50;97.40;;;;;;5094524;28;20671;-59
2021/06/19 00:15:00;;;;;;;8.68;3.33;;;25.50;97.20;;;;;;5094487;28;20579;-59
2021/06/19 00:17:27;;;;;;;8.07;3.33;;;25.50;97.20;;;;;;5094650;28;20207;-58
2021/06/19 00:19:54;;;;;;;9.30;3.60;;;25.50;97.10;;;;;;5094292;28;20254;-59
2021/06/19 00:22:20;;;;;;;10.25;3.40;;;25.50;96.90;;;;;;5094608;28;20215;-59
2021/06/19 00:24:47;;;;;;;5.68;3.38;;;25.50;96.60;;;;;;5094432;28;20211;-58
2021/06/19 00:27:15;;;;;;;9.00;3.88;;;25.50;96.30;;;;;;5094461;28;20583;-59
2021/06/19 00:29:42;;;;;;;8.85;3.72;;;25.50;96.50;;;;;;5094148;28;20220;-59
2021/06/19 00:32:08;;;;;;;7.72;3.40;;;25.50;96.70;;;;;;5094314;28;20578;-59
2021/06/19 00:34:35;;;;;;;5.90;3.17;;;25.50;97.20;;;;;;5094027;28;20235;-59
2021/06/19 00:37:02;;;;;;;10.13;3.90;;;25.40;97.30;;;;;;5094311;28;20208;-59
2021/06/19 00:39:29;;;;;;;7.47;3.58;;;25.40;97.20;;;;;;5094337;28;20231;-59
2021/06/19 00:41:56;;;;;;;15.43;3.58;;;25.50;97.10;;;;;;5094029;28;20204;-59
2021/06/19 00:44:24;;;;;;;11.13;3.83;;;25.50;96.70;;;;;;5094282;28;20227;-59
2021/06/19 00:46:52;;;;;;;7.68;3.30;;;25.50;96.40;;;;;;5094191;28;20204;-59
2021/06/19 00:49:19;;;;;;;12.40;3.60;;;25.60;96.10;;;;;;5093955;28;20227;-59
2021/06/19 00:51:46;;;;;;;10.45;3.55;;;25.60;95.80;;;;;;5094001;28;20584;-59
2021/06/19 00:54:13;;;;;;;11.50;3.17;;;25.60;94.60;;;;;;5093938;28;20227;-59
2021/06/19 00:56:41;;;;;;;13.10;3.47;;;25.60;93.80;;;;;;5093715;28;20601;-59
2021/06/19 00:59:08;;;;;;;16.63;3.97;;;25.60;93.90;;;;;;5093584;28;20634;-59
2021/06/19 01:01:38;;;;;;;13.82;3.45;;;25.60;94.10;;;;;;5093710;28;20472;-60
2021/06/19 01:04:06;;;;;;;13.18;3.80;;;25.60;94.10;;;;;;5093834;28;20200;-60
2021/06/19 01:06:34;;;;;;;11.45;5.45;;;25.70;94.00;;;;;;5093623;28;20200;-60
2021/06/19 01:09:01;;;;;;;12.02;3.65;;;25.70;94.00;;;;;;5094088;28;20232;-59
2021/06/19 01:11:31;;;;;;;12.98;3.63;;;25.70;93.90;;;;;;5093151;28;20223;-58
2021/06/19 01:13:58;;;;;;;13.70;3.70;;;25.70;93.90;;;;;;5093934;28;20214;-59
2021/06/19 01:16:26;;;;;;;13.50;3.80;;;25.70;93.80;;;;;;5095675;28;20228;-60
2021/06/19 01:18:54;;;;;;;13.52;3.40;;;25.70;93.70;;;;;;5096125;28;20228;-59
2021/06/19 01:21:22;;;;;;;10.50;3.75;;;25.70;93.70;;;;;;5095681;28;20200;-59
2021/06/19 01:23:50;;;;;;;10.38;3.53;;;25.70;93.80;;;;;;5093609;28;20200;-59
2021/06/19 01:26:20;;;;;;;11.32;3.90;;;25.70;93.80;;;;;;5093218;28;20200;-57
2021/06/19 01:28:49;;;;;;;9.45;3.58;;;25.70;93.90;;;;;;5093121;28;20212;-58
2021/06/19 01:31:16;;;;;;;14.50;3.80;;;25.60;94.20;;;;;;5093442;28;20204;-58
2021/06/19 01:33:45;;;;;;;14.85;4.38;;;25.60;94.30;;;;;;5093116;28;20227;-57
2021/06/19 01:36:12;;;;;;;10.07;3.28;;;25.60;94.30;;;;;;5093192;28;20228;-59
2021/06/19 01:38:40;;;;;;;10.93;3.95;;;25.70;94.40;;;;;;5093006;28;20208;-59
2021/06/19 01:41:12;;;;;;;19.25;3.95;;;25.70;95.00;;;;;;5092891;28;20675;-59
2021/06/19 01:43:41;;;;;;;13.77;4.07;;;25.70;95.30;;;;;;5092872;28;20216;-58
2021/06/19 01:46:08;;;;;;;16.10;3.83;;;25.70;95.90;;;;;;5093083;28;20223;-59
2021/06/19 01:48:35;;;;;;;14.63;3.83;;;25.70;96.70;;;;;;5092700;28;20204;-59
2021/06/19 01:51:01;;;;;;;14.43;4.03;;;25.70;97.80;;;;;;5092801;28;20208;-58
2021/06/19 01:53:28;;;;;;;13.95;4.13;;;25.60;98.90;;;;;;5092507;28;20212;-59
2021/06/19 01:55:55;;;;;;;13.27;4.25;;;25.50;99.80;;;;;;5092753;28;20217;-60
2021/06/19 01:58:21;;;;;;;13.45;3.80;;;25.50;99.90;;;;;;5092634;28;20204;-60
2021/06/19 02:00:49;;;;;;;11.05;3.90;;;25.40;99.90;;;;;;5114172;22;20239;-58
2021/06/19 02:03:16;;;;;;;11.20;4.35;;;25.30;99.90;;;;;;5092590;28;20212;-59
2021/06/19 02:05:43;;;;;;;7.35;3.80;;;25.20;99.90;;;;;;5092561;28;20496;-58
2021/06/19 02:08:11;;;;;;;11.55;3.97;;;25.10;99.90;;;;;;5092287;28;20208;-59
2021/06/19 02:10:40;;;;;;;15.50;4.03;;;25.00;99.90;;;;;;5092610;28;20277;-60
2021/06/19 02:13:08;;;;;;;10.70;4.43;;;24.80;99.90;;;;;;5092574;28;20676;-59
2021/06/19 02:15:36;;;;;;;13.68;4.00;;;24.60;99.90;;;;;;5092261;28;20223;-59
2021/06/19 02:18:05;;;;;;;12.02;4.15;;;24.50;99.90;;;;;;5092145;28;20211;-59
2021/06/19 02:20:32;;;;;;;10.32;4.72;;;24.30;99.90;;;;;;5092109;28;20612;-59
2021/06/19 02:22:58;;;;;;;10.20;4.38;;;24.20;99.90;;;;;;5091492;28;20204;-59
2021/06/19 02:25:27;;;;;;;14.27;4.20;;;24.20;99.90;;;;;;5092284;28;20196;-60
2021/06/19 02:27:57;;;;;;;13.68;5.30;;;24.20;99.90;;;;;;5092120;28;20200;-59
2021/06/19 02:30:25;;;;;;;16.90;5.05;;;24.10;99.90;;;;;;5092089;28;20228;-59
2021/06/19 02:32:54;;;;;;;11.68;4.35;;;24.20;99.90;;;;;;5091959;28;20602;-60
2021/06/19 02:35:24;;;;;;;13.23;4.18;;;24.20;99.90;;;;;;5091726;28;20220;-60
2021/06/19 02:37:51;;;;;;;14.50;4.53;;;24.10;99.90;;;;;;5092029;28;20204;-59
2021/06/19 02:40:18;;;;;;;15.55;4.32;;;24.00;99.90;;;;;;5091887;28;20224;-59
2021/06/19 02:42:45;;;;;;;15.82;4.43;;;24.00;99.90;;;;;;5091893;28;20208;-60
2021/06/19 02:45:12;;;;;;;13.05;5.22;;;23.90;99.90;;;;;;5091713;28;20387;-59
2021/06/19 02:47:40;;;;;;;12.65;4.68;;;23.90;99.90;;;;;;5091688;28;20255;-59
2021/06/19 02:50:08;;;;;;;10.18;4.57;;;24.00;99.90;;;;;;5091612;28;20579;-59
2021/06/19 02:52:40;;;;;;;7.55;3.72;;;24.00;99.90;;;;;;5092050;28;20204;-60
2021/06/19 02:55:08;;;;;;;11.40;4.68;;;23.90;99.90;;;;;;5091735;28;20208;-59
2021/06/19 02:57:35;;;;;;;9.57;3.95;;;23.70;99.90;;;;;;5091910;28;20262;-59
2021/06/19 03:00:02;;;;;;;12.95;4.47;;;23.70;99.90;;;;;;5091621;28;20236;-59
2021/06/19 03:02:29;;;;;;;15.07;4.95;;;23.70;99.90;;;;;;5091674;28;20265;-59
2021/06/19 03:04:55;;;;;;;16.73;4.82;;;23.70;99.90;;;;;;5092205;28;20215;-59
2021/06/19 03:07:22;;;;;;;12.30;4.45;;;23.70;99.90;;;;;;5091665;28;20211;-59
2021/06/19 03:09:50;;;;;;;11.75;4.55;;;23.60;99.90;;;;;;5091331;28;20224;-60
2021/06/19 03:12:17;;;;;;;12.65;4.18;;;23.60;99.90;;;;;;5091366;28;20702;-59
2021/06/19 03:14:43;;;;;;;14.32;4.50;;;23.50;99.90;;;;;;5091080;28;20204;-59
2021/06/19 03:17:10;;;;;;;11.80;4.70;;;23.40;99.90;;;;;;5091222;28;20220;-59
2021/06/19 03:19:37;;;;;;;11.68;4.45;;;23.50;99.90;;;;;;5091415;28;20220;-60
2021/06/19 03:22:04;;;;;;;12.60;4.78;;;23.50;99.90;;;;;;5091413;28;20204;-59
2021/06/19 03:24:31;;;;;;;15.73;4.32;;;23.50;99.90;;;;;;5091272;28;20215;-59
2021/06/19 03:26:59;;;;;;;12.88;4.93;;;23.60;99.90;;;;;;5091324;28;20204;-59
2021/06/19 03:29:25;;;;;;;15.50;5.38;;;23.60;99.90;;;;;;5090848;28;20227;-60
2021/06/19 03:31:52;;;;;;;13.10;4.75;;;23.70;99.90;;;;;;5091683;28;20204;-59
2021/06/19 03:34:19;;;;;;;11.18;4.60;;;23.70;99.90;;;;;;5094247;28;20204;-59
2021/06/19 03:36:45;;;;;;;13.02;4.35;;;23.80;99.90;;;;;;5093717;28;20254;-59
2021/06/19 03:39:15;;;;;;;11.73;4.53;;;23.80;99.90;;;;;;5092936;28;20590;-60
2021/06/19 03:41:42;;;;;;;8.55;4.03;;;23.90;99.90;;;;;;5093095;28;20288;-60
2021/06/19 03:44:11;;;;;;;11.82;4.10;;;24.00;99.90;;;;;;5091638;28;20445;-59
2021/06/19 03:46:39;;;;;;;13.32;4.00;;;24.10;99.90;;;;;;5091838;28;20211;-60
2021/06/19 03:49:06;;;;;;;11.98;4.65;;;24.10;99.90;;;;;;5091378;28;20204;-59
2021/06/19 03:51:32;;;;;;;9.80;4.03;;;24.10;99.90;;;;;;5091046;28;20208;-59
2021/06/19 03:53:59;;;;;;;11.73;4.32;;;24.20;99.90;;;;;;5090698;28;20208;-59
2021/06/19 03:56:26;;;;;;;13.43;4.40;;;24.10;99.90;;;;;;5090630;28;20220;-59
2021/06/19 03:58:53;;;;;;;12.90;4.60;;;24.10;99.90;;;;;;5090777;28;20219;-60
2021/06/19 04:01:21;;;;;;;9.60;4.28;;;24.00;99.90;;;;;;5091371;28;20227;-60
2021/06/19 04:03:48;;;;;;;11.43;4.78;;;24.00;99.90;;;;;;5091305;28;20207;-60
2021/06/19 04:06:15;;;;;;;11.18;4.25;;;24.00;99.90;;;;;;5090832;28;20204;-60
2021/06/19 04:08:41;;;;;;;11.73;4.65;;;24.00;99.90;;;;;;5090682;28;20211;-60
2021/06/19 04:11:08;;;;;;;19.55;5.32;;;24.00;99.90;;;;;;5090551;28;20635;-60
2021/06/19 04:13:35;;;;;;;11.02;4.97;;;24.00;99.90;;;;;;5090821;28;20601;-60
2021/06/19 04:16:01;;;;;;;11.50;5.07;;;24.10;99.90;;;;;;5090789;28;20224;-60
2021/06/19 04:18:29;;;;;;;13.95;5.32;;;24.10;99.90;;;;;;5090736;28;20211;-60
2021/06/19 04:20:56;;;;;;;12.23;4.68;;;24.10;99.90;;;;;;5091086;28;20220;-60
2021/06/19 04:23:23;;;;;;;15.55;5.07;;;24.20;99.90;;;;;;5090594;28;20211;-60
2021/06/19 04:25:49;;;;;;;13.48;4.65;;;24.20;99.90;;;;;;5090608;28;20200;-60
2021/06/19 04:28:16;;;;;;;15.18;4.45;;;24.10;99.90;;;;;;5090556;28;20204;-60
2021/06/19 04:30:43;;;;;;;15.18;4.70;;;24.10;99.90;;;;;;5090732;28;20434;-60
2021/06/19 04:33:09;;;;;;;10.75;4.60;;;24.10;99.90;;;;;;5090706;28;20208;-60
2021/06/19 04:35:37;;;;;;;13.55;5.15;;;24.10;99.90;;;;;;5090496;28;20205;-60
2021/06/19 04:38:04;;;;;;;14.48;4.65;;;24.20;99.90;;;;;;5090341;28;20589;-60
2021/06/19 04:40:35;;;;;;;9.13;4.90;;;24.20;99.90;;;;;;5090372;28;20311;-60
2021/06/19 04:43:04;;;;;;;13.23;4.75;;;24.30;99.90;;;;;;5090779;28;20299;-62
2021/06/19 04:45:31;;;;;;;12.00;4.78;;;24.40;99.90;;;;;;5091520;28;20211;-58
2021/06/19 04:47:59;;;;;;;12.05;4.90;;;24.40;99.90;;;;;;5093844;28;20209;-58
2021/06/19 04:50:26;;;;;;;10.95;5.45;;;24.50;99.90;;;;;;5093900;28;20228;-59
2021/06/19 04:52:54;;;;;;;11.18;5.38;;;24.60;99.90;;;;;;5093847;28;20200;-58
2021/06/19 04:55:21;;;;;;;16.13;5.63;;;24.60;99.90;;;;;;5093857;28;20211;-59
2021/06/19 04:57:52;;;;;;;11.98;4.70;;;24.60;99.90;;;;;;5093654;28;20254;-59
2021/06/19 05:00:19;;;;;;;10.32;4.88;;;24.60;99.90;;;;;;5093683;28;20264;-59
2021/06/19 05:02:46;;;;;;;10.52;4.72;;;24.60;99.90;;;;;;5093857;28;20664;-59
2021/06/19 05:05:13;;;;;;;10.38;4.72;;;24.70;99.90;;;;;;5093638;28;20211;-59
2021/06/19 05:07:40;;;;;;;14.02;4.97;;;24.80;99.90;;;;;;5094116;28;20200;-59
2021/06/19 05:10:10;;;;;;;11.25;5.00;;;25.00;99.90;;;;;;5093814;28;20228;-59
2021/06/19 05:12:39;;;;;;;13.55;5.07;;;25.10;99.90;;;;;;5093941;28;20215;-60
2021/06/19 05:15:07;;;;;;;11.50;4.55;;;25.30;99.90;;;;;;5093693;28;20215;-59
2021/06/19 05:17:34;;;;;;;9.20;4.13;;;25.60;99.90;;;;;;5093390;28;20231;-59
2021/06/19 05:20:00;;;;;;;16.38;4.63;;;26.10;99.90;;;;;;5093667;28;20239;-59
2021/06/19 05:22:27;;;;;;;8.05;3.83;;;26.40;99.90;;;;;;5093434;28;20690;-59
2021/06/19 05:24:54;;;;;;;11.13;4.38;;;26.50;99.90;;;;;;5093434;28;20208;-59
2021/06/19 05:27:22;;;;;;;10.35;4.07;;;26.60;99.90;;;;;;5093426;28;20200;-59
2021/06/19 05:29:50;;;;;;;9.10;4.60;;;26.80;99.90;;;;;;5093276;28;20227;-59
2021/06/19 05:32:17;;;;;;;12.00;4.22;;;27.70;99.90;;;;;;5093186;28;20212;-59
2021/06/19 05:34:44;;;;;;;14.30;4.47;;;29.20;99.00;;;;;;5093274;28;20231;-59
2021/06/19 05:37:11;;;;;;;12.90;4.00;;;30.90;95.20;;;;;;5093401;28;20235;-59
2021/06/19 05:39:38;;;;;;;12.82;3.97;;;32.50;92.40;;;;;;5092971;28;20236;-59
2021/06/19 05:42:05;;;;;;;11.48;4.20;;;34.00;88.40;;;;;;5092971;28;20229;-59
2021/06/19 05:44:33;;;;;;;11.80;4.53;;;35.30;80.00;;;;;;5093048;28;20215;-60
2021/06/19 05:47:00;;;;;;;13.60;4.18;;;36.20;73.60;;;;;;5093011;28;20196;-60
2021/06/19 05:49:27;;;;;;;10.77;4.70;;;36.10;72.30;;;;;;5093154;28;20224;-58
2021/06/19 05:51:53;;;;;;;14.02;4.70;;;35.90;69.80;;;;;;5093255;28;20295;-61
2021/06/19 05:54:20;;;;;;;12.50;5.60;;;34.90;71.00;;;;;;5092940;28;20566;-61
2021/06/19 05:56:47;;;;;;;15.35;4.65;;;35.10;71.30;;;;;;5092825;28;20224;-59
2021/06/19 05:59:14;;;;;;;18.38;4.07;;;36.00;67.70;;;;;;5092570;28;20236;-60
2021/06/19 06:01:42;;;;;;;10.25;4.10;;;36.90;65.00;;;;;;5093414;28;20564;-60
2021/06/19 06:04:09;;;;;;;15.43;4.65;;;37.50;62.20;;;;;;5093054;28;20814;-60
2021/06/19 06:06:36;;;;;;;14.13;4.43;;;37.70;60.90;;;;;;5092503;28;20211;-60
2021/06/19 06:09:04;;;;;;;12.95;4.63;;;37.90;59.10;;;;;;5092462;28;20204;-59
2021/06/19 06:11:31;;;;;;;12.30;4.30;;;38.40;58.30;;;;;;5092513;28;20307;-61
2021/06/19 06:13:58;;;;;;;10.63;3.92;;;39.10;56.70;;;;;;5092326;28;20208;-60
2021/06/19 06:16:24;;;;;;;9.70;4.03;;;39.80;55.10;;;;;;5092279;28;20231;-60
2021/06/19 06:18:52;;;;;;;9.60;3.90;;;40.40;53.10;;;;;;5092291;28;20215;-60
2021/06/19 06:21:19;;;;;;;15.32;3.90;;;41.10;52.20;;;;;;5092549;28;20268;-61
2021/06/19 06:23:46;;;;;;;12.27;4.10;;;41.80;50.60;;;;;;5092334;28;20215;-61
2021/06/19 06:26:13;;;;;;;13.32;4.07;;;41.60;49.80;;;;;;5092213;28;20215;-61
2021/06/19 06:28:40;;;;;;;17.27;10.05;;;40.30;51.70;;;;;;5091909;28;20229;-61
2021/06/19 06:31:08;;;;;;;10.68;4.53;;;39.80;52.10;;;;;;5092349;28;20251;-61
2021/06/19 06:33:34;;;;;;;17.45;4.47;;;39.20;52.80;;;;;;5092234;28;20204;-61
2021/06/19 06:36:02;;;;;;;13.07;4.28;;;38.90;53.10;;;;;;5092568;28;20204;-60
2021/06/19 06:38:29;;;;;;;9.57;3.85;;;39.30;52.80;;;;;;5091855;28;20227;-60
2021/06/19 06:40:56;;;;;;;11.55;3.95;;;40.20;51.80;;;;;;5092078;28;20323;-60
2021/06/19 06:43:23;;;;;;;12.77;4.28;;;40.80;50.00;;;;;;5092153;28;20204;-60
2021/06/19 06:45:50;;;;;;;11.50;3.97;;;40.90;51.00;;;;;;5092165;28;20255;-61
2021/06/19 06:48:17;;;;;;;14.50;4.28;;;41.70;50.00;;;;;;5091982;28;20208;-60
2021/06/19 06:50:43;;;;;;;12.27;5.60;;;42.70;47.70;;;;;;5091939;28;20557;-61
2021/06/19 06:53:11;;;;;;;15.55;4.35;;;43.60;46.80;;;;;;5091669;28;20208;-58
2021/06/19 06:55:38;;;;;;;11.55;4.20;;;44.50;44.80;;;;;;5091432;28;20203;-61
2021/06/19 06:58:05;;;;;;;11.77;4.13;;;44.50;43.40;;;;;;5091566;28;20223;-59
2021/06/19 07:00:32;;;;;;;10.10;4.05;;;45.50;42.80;;;;;;5091480;28;20232;-59
2021/06/19 07:02:59;;;;;;;14.80;4.55;;;45.60;41.80;;;;;;5092057;28;20203;-59
2021/06/19 07:05:25;;;;;;;15.85;4.28;;;45.90;41.70;;;;;;5091717;28;20200;-59
2021/06/19 07:07:52;;;;;;;15.32;3.97;;;46.30;41.20;;;;;;5091331;28;20207;-60
2021/06/19 07:10:20;;;;;;;11.00;4.28;;;46.90;40.00;;;;;;5091966;28;20235;-60
2021/06/19 07:12:47;;;;;;;15.65;4.68;;;46.50;40.10;;;;;;5091589;28;20203;-60
2021/06/19 07:15:16;;;;;;;15.63;4.30;;;46.00;40.90;;;;;;5091122;28;20203;-60
2021/06/19 07:17:43;;;;;;;11.98;3.92;;;45.80;41.30;;;;;;5090943;28;20223;-60
2021/06/19 07:20:12;;;;;;;11.90;4.85;;;46.00;41.70;;;;;;5091609;28;20231;-60
2021/06/19 07:22:39;;;;;;;19.25;6.70;;;46.50;40.40;;;;;;5091198;28;20210;-59
2021/06/19 07:25:08;;;;;;;15.20;4.53;;;46.90;39.70;;;;;;5090966;28;20667;-60
2021/06/19 07:27:36;;;;;;;11.48;4.13;;;47.30;39.20;;;;;;5091308;28;20283;-61
2021/06/19 07:30:03;;;;;;;13.27;4.65;;;47.60;38.30;;;;;;5091104;28;20598;-59
2021/06/19 07:32:30;;;;;;;17.02;4.60;;;48.00;38.30;;;;;;5091127;28;20211;-59
2021/06/19 07:34:57;;;;;;;12.85;3.83;;;48.00;38.10;;;;;;5091230;28;20211;-60
2021/06/19 07:37:23;;;;;;;14.98;4.35;;;47.90;38.00;;;;;;5090882;28;20238;-60
2021/06/19 07:39:52;;;;;;;15.15;4.10;;;48.30;37.40;;;;;;5090958;28;20231;-60
2021/06/19 07:42:19;;;;;;;15.40;4.07;;;48.00;37.40;;;;;;5090929;28;20587;-61
2021/06/19 07:44:48;;;;;;;11.07;4.13;;;47.10;38.60;;;;;;5090920;28;20211;-59
2021/06/19 07:47:14;;;;;;;10.52;4.25;;;47.00;39.30;;;;;;5090832;28;20200;-60
2021/06/19 07:49:41;;;;;;;14.98;4.47;;;47.30;38.00;;;;;;5090830;28;20639;-59
2021/06/19 07:52:08;;;;;;;12.93;4.28;;;47.50;38.10;;;;;;5091364;28;20211;-60
2021/06/19 07:54:37;;;;;;;10.18;3.80;;;48.00;37.40;;;;;;5091263;28;20207;-60
2021/06/19 07:57:05;;;;;;;11.27;4.15;;;48.50;35.90;;;;;;5091452;28;20269;-60
2021/06/19 07:59:31;;;;;;;7.80;3.42;;;48.60;36.10;;;;;;5112495;22;20700;-60
2021/06/19 08:01:59;;;;;;;13.45;3.83;;;49.00;35.60;;;;;;5091053;28;20203;-60
2021/06/19 08:04:26;;;;;;;11.60;4.20;;;49.40;34.80;;;;;;5090534;28;20203;-61
2021/06/19 08:06:53;;;;;;;12.20;4.13;;;49.50;35.00;;;;;;5090645;28;20689;-61
2021/06/19 08:09:19;;;;;;;13.68;4.70;;;49.20;35.80;;;;;;5090604;28;20207;-60
2021/06/19 08:11:46;;;;;;;10.85;3.83;;;48.90;36.20;;;;;;5090838;28;20211;-61
2021/06/19 08:14:15;;;;;;;16.27;3.85;;;48.40;36.40;;;;;;5090783;28;20211;-60
2021/06/19 08:16:45;;;;;;;10.80;4.03;;;47.90;36.70;;;;;;5090612;28;20659;-60
2021/06/19 08:19:14;;;;;;;10.02;3.97;;;47.60;37.30;;;;;;5090383;28;20261;-60
2021/06/19 08:21:40;;;;;;;10.82;4.13;;;47.40;37.30;;;;;;5093587;28;20211;-60
2021/06/19 08:24:08;;;;;;;12.90;3.92;;;47.30;37.40;;;;;;5094481;28;20215;-61
2021/06/19 08:26:36;;;;;;;13.02;3.88;;;47.10;37.40;;;;;;5094745;28;20203;-60
2021/06/19 08:29:03;;;;;;;13.40;4.50;;;47.30;37.40;;;;;;5094623;28;20199;-62
2021/06/19 08:31:32;;;;;;;11.10;3.90;;;47.20;37.50;;;;;;5094556;28;20231;-61
2021/06/19 08:33:59;;;;;;;10.85;4.13;;;47.20;37.10;;;;;;5094550;28;20728;-61
2021/06/19 08:36:27;;;;;;;10.15;4.13;;;47.10;37.40;;;;;;5094742;28;20260;-62
2021/06/19 08:38:54;;;;;;;14.30;4.10;;;47.00;37.30;;;;;;5093725;28;20639;-62
2021/06/19 08:41:20;;;;;;;11.95;4.18;;;47.10;37.00;;;;;;5093681;28;20219;-61
2021/06/19 08:43:47;;;;;;;13.05;3.90;;;47.10;37.00;;;;;;5094271;28;20622;-61
2021/06/19 08:46:18;;;;;;;9.57;4.00;;;47.10;37.30;;;;;;5093834;28;20212;-61
2021/06/19 08:48:46;;;;;;;10.45;3.95;;;47.10;37.00;;;;;;5094349;28;20210;-61
2021/06/19 08:51:12;;;;;;;9.52;4.25;;;46.90;37.20;;;;;;5094174;28;20231;-61
2021/06/19 08:53:40;;;;;;;9.25;4.10;;;46.30;38.00;;;;;;5093983;28;20203;-61
2021/06/19 08:56:07;;;;;;;9.95;4.32;;;45.30;38.90;;;;;;5093887;28;20659;-61
2021/06/19 08:58:34;;;;;;;14.45;4.50;;;44.20;39.90;;;;;;5093617;28;20215;-61
2021/06/19 09:01:01;;;;;;;14.43;4.40;;;43.10;41.10;;;;;;5093822;28;20745;-61
2021/06/19 09:03:29;;;;;;;16.20;4.82;;;41.80;42.40;;;;;;5093861;28;20682;-61
2021/06/19 09:06:20;;;;;;;11.98;4.63;;;40.60;44.20;;;;;;5093717;28;20204;-61
2021/06/19 09:09:02;;;;;;;13.23;4.72;;;39.20;46.10;;;;;;5083735;28;20259;-60
2021/06/19 09:11:31;;;;;;;8.63;4.43;;;38.00;48.10;;;;;;5073340;28;20225;-61
2021/06/19 09:14:02;;;;;;;12.88;4.88;;;36.90;50.40;;;;;;5073406;28;20212;-60
2021/06/19 09:16:29;;;;;;;8.10;4.38;;;36.00;51.80;;;;;;5073830;28;20204;-60
2021/06/19 09:18:57;;;;;;;12.90;4.78;;;35.40;53.10;;;;;;5073090;28;20231;-60
2021/06/19 09:21:28;;;;;;;6.15;4.47;;;34.90;54.40;;;;;;5073354;28;20225;-64
2021/06/19 09:23:55;;;;;;;15.48;4.97;;;34.40;55.00;;;;;;5073875;28;20216;-61
2021/06/19 09:26:25;;;;;;;12.00;5.00;;;34.00;56.30;;;;;;5073594;28;20201;-67
2021/06/19 09:29:06;;;;;;;11.82;5.10;;;33.60;58.00;;;;;;5073356;28;20229;-61
2021/06/19 09:31:35;;;;;;;10.25;5.07;;;33.40;58.60;;;;;;5072980;28;20264;-60
2021/06/19 09:34:04;;;;;;;11.45;5.00;;;33.40;58.70;;;;;;5072950;28;20204;-61
2021/06/19 09:36:38;;;;;;;9.80;4.78;;;33.50;58.50;;;;;;5073342;28;20262;-60
2021/06/19 09:39:06;;;;;;;11.07;4.70;;;33.40;58.70;;;;;;5072771;28;20224;-60
2021/06/19 09:41:39;;;;;;;10.55;4.78;;;33.40;58.60;;;;;;5072875;28;20231;-60
2021/06/19 09:44:06;;;;;;;16.60;5.03;;;33.40;58.10;;;;;;5072676;28;20201;-60
2021/06/19 09:46:33;;;;;;;14.32;4.63;;;33.30;58.00;;;;;;5072656;28;20672;-60
2021/06/19 09:49:14;;;;;;;10.18;4.60;;;33.30;58.60;;;;;;5072751;28;20694;-60
2021/06/19 09:51:52;;;;;;;11.90;4.55;;;33.30;59.00;;;;;;5072844;28;20200;-61
2021/06/19 09:54:20;;;;;;;17.58;5.05;;;33.20;59.70;;;;;;5072486;28;20212;-61
2021/06/19 09:56:51;;;;;;;8.77;4.68;;;33.10;60.40;;;;;;5072567;28;20291;-59
2021/06/19 09:59:25;;;;;;;9.55;4.55;;;33.10;61.00;;;;;;5072211;28;20229;-59
2021/06/19 10:01:53;;;;;;;10.43;4.90;;;33.20;61.10;;;;;;5072646;28;20265;-60
2021/06/19 10:04:20;;;;;;;11.63;4.68;;;33.20;61.20;;;;;;5072356;28;20211;-60
2021/06/19 10:06:48;;;;;;;13.60;5.53;;;33.10;61.70;;;;;;5072554;28;20205;-60
2021/06/19 10:09:15;;;;;;;12.63;5.40;;;33.00;62.70;;;;;;5072086;28;20217;-60
2021/06/19 10:11:43;;;;;;;18.20;5.55;;;32.90;62.40;;;;;;5072255;28;20298;-58
2021/06/19 10:14:16;;;;;;;9.68;4.55;;;32.90;62.60;;;;;;5072296;28;20208;-60
2021/06/19 10:16:45;;;;;;;10.38;4.20;;;32.90;60.50;;;;;;5072438;28;20300;-60
2021/06/19 10:19:12;;;;;;;9.52;4.47;;;32.90;59.50;;;;;;5072052;28;20225;-60
2021/06/19 10:21:39;;;;;;;12.23;5.18;;;32.90;60.60;;;;;;5072034;28;20216;-60
2021/06/19 10:24:07;;;;;;;8.60;4.40;;;32.80;61.30;;;;;;5072053;28;20695;-60
2021/06/19 10:26:37;;;;;;;11.70;4.57;;;33.00;60.90;;;;;;5072368;28;20255;-59
2021/06/19 10:29:05;;;;;;;10.15;4.32;;;33.20;60.50;;;;;;5072308;28;20205;-60
2021/06/19 10:31:41;;;;;;;12.52;4.70;;;33.40;59.90;;;;;;5072456;28;21079;-59
2021/06/19 10:34:25;;;;;;;14.93;4.57;;;33.60;58.70;;;;;;5072467;28;20201;-60
2021/06/19 10:36:54;;;;;;;12.55;4.95;;;33.70;59.30;;;;;;5072215;28;20215;-60
2021/06/19 10:39:42;;;;;;;11.90;4.65;;;33.60;59.80;;;;;;5071616;28;20232;-60
2021/06/19 10:42:25;;;;;;;12.32;4.47;;;33.70;60.30;;;;;;5072105;28;20209;-59
2021/06/19 10:44:59;;;;;;;14.52;4.57;;;33.80;59.40;;;;;;5070986;28;20209;-59
2021/06/19 10:47:29;;;;;;;10.93;4.25;;;34.10;58.80;;;;;;5072034;28;20205;-60
2021/06/19 10:49:57;;;;;;;12.40;4.60;;;34.20;59.10;;;;;;5071305;28;20232;-60
2021/06/19 10:52:32;;;;;;;14.63;5.10;;;34.30;59.50;;;;;;5071520;28;20204;-60
2021/06/19 10:55:26;;;;;;;10.40;4.93;;;34.30;59.50;;;;;;5071347;28;20205;-60
2021/06/19 10:57:55;;;;;;;10.80;4.60;;;34.30;59.20;;;;;;5071285;28;20224;-60
2021/06/19 11:00:32;;;;;;;16.35;4.97;;;34.20;59.40;;;;;;5071205;28;20259;-60
2021/06/19 11:03:01;;;;;;;12.35;4.57;;;34.20;59.30;;;;;;5071376;28;20216;-60
2021/06/19 11:05:50;;;;;;;10.70;5.07;;;34.30;58.70;;;;;;5071319;28;20204;-60
2021/06/19 11:08:18;;;;;;;10.98;4.55;;;34.30;59.10;;;;;;5071072;28;20201;-61
2021/06/19 11:10:56;;;;;;;14.93;4.68;;;34.30;58.60;;;;;;5071175;28;20224;-61
2021/06/19 11:13:41;;;;;;;10.05;4.80;;;34.50;58.20;;;;;;5071119;28;20205;-61
2021/06/19 11:16:42;;;;;;;15.48;4.15;;;34.40;58.70;;;;;;5071275;28;20578;-61
2021/06/19 11:19:10;;;;;;;8.85;4.57;;;34.40;59.10;;;;;;5058009;28;20228;-61
2021/06/19 11:21:39;;;;;;;12.45;5.20;;;34.50;59.10;;;;;;5071079;28;20213;-67
2021/06/19 11:24:10;;;;;;;9.50;4.63;;;34.50;58.30;;;;;;5071106;28;20205;-61
2021/06/19 11:26:52;;;;;;;13.88;4.60;;;34.40;57.00;;;;;;5071061;28;20209;-61
2021/06/19 11:29:39;;;;;;;12.75;4.40;;;34.30;55.70;;;;;;5071308;28;20258;-61
2021/06/19 11:32:22;;;;;;;15.30;4.57;;;34.30;55.30;;;;;;5070848;28;20736;-61
2021/06/19 11:34:51;;;;;;;12.93;4.72;;;34.50;56.20;;;;;;5071031;28;20240;-61
2021/06/19 11:37:18;;;;;;;12.25;3.80;;;34.60;57.30;;;;;;5070950;28;20660;-61
2021/06/19 11:39:45;;;;;;;8.60;4.32;;;34.70;56.10;;;;;;5071175;28;20229;-61
2021/06/19 11:42:12;;;;;;;10.80;4.22;;;34.80;56.10;;;;;;5071582;28;20612;-61
2021/06/19 11:44:41;;;;;;;12.98;4.32;;;35.10;54.90;;;;;;5071415;28;20254;-63
2021/06/19 11:47:09;;;;;;;13.63;4.50;;;35.20;54.00;;;;;;5071395;28;20211;-66
2021/06/19 11:49:44;;;;;;;11.93;4.50;;;35.30;55.00;;;;;;5071217;28;20248;-60
2021/06/19 11:52:16;;;;;;;11.60;4.50;;;35.40;54.90;;;;;;5071117;28;20294;-59
2021/06/19 11:54:44;;;;;;;10.35;3.78;;;35.30;55.50;;;;;;5072540;28;20204;-59
2021/06/19 11:57:21;;;;;;;14.50;4.82;;;35.20;55.30;;;;;;5074987;28;20220;-58
2021/06/19 12:00:01;;;;;;;11.52;4.20;;;35.20;55.00;;;;;;5074770;28;20615;-60
2021/06/19 12:02:28;;;;;;;9.90;4.30;;;35.30;55.40;;;;;;5075139;28;20204;-60
2021/06/19 12:04:55;;;;;;;13.07;4.00;;;35.40;54.30;;;;;;5074848;28;20209;-61
2021/06/19 12:07:26;;;;;;;12.38;4.43;;;35.60;53.80;;;;;;5074902;28;20205;-59
2021/06/19 12:09:53;;;;;;;16.92;4.32;;;35.80;53.10;;;;;;5074542;28;20739;-60
2021/06/19 12:12:20;;;;;;;10.65;4.00;;;35.90;52.40;;;;;;5074693;28;20209;-60
2021/06/19 12:14:47;;;;;;;11.73;4.40;;;35.90;52.60;;;;;;5074638;28;20270;-60
2021/06/19 12:17:14;;;;;;;9.55;3.97;;;35.80;51.80;;;;;;5074338;28;20258;-59
2021/06/19 12:19:43;;;;;;;15.68;4.22;;;35.80;51.50;;;;;;5074440;28;20225;-60
2021/06/19 12:22:10;;;;;;;12.88;3.97;;;35.90;51.50;;;;;;5074322;28;20681;-60
2021/06/19 12:24:39;;;;;;;10.73;3.53;;;36.00;51.20;;;;;;5074404;28;20205;-59
2021/06/19 12:27:10;;;;;;;16.00;4.10;;;36.20;51.20;;;;;;5074213;28;20549;-61
2021/06/19 12:29:40;;;;;;;18.40;4.28;;;36.40;50.30;;;;;;5074297;28;20217;-60
2021/06/19 12:32:25;;;;;;;15.52;4.20;;;36.40;49.70;;;;;;5074644;28;20213;-60
2021/06/19 12:34:54;;;;;;;15.90;4.10;;;36.50;49.60;;;;;;5073906;28;20232;-60
2021/06/19 12:37:26;;;;;;;13.05;4.13;;;36.30;49.40;;;;;;5074165;28;20711;-60
2021/06/19 12:39:55;;;;;;;9.43;4.10;;;36.20;49.20;;;;;;5074061;28;20757;-60
2021/06/19 12:42:45;;;;;;;16.08;3.92;;;36.20;49.10;;;;;;5074306;28;20619;-61
2021/06/19 12:45:15;;;;;;;15.13;4.40;;;36.50;48.20;;;;;;5074112;28;20248;-60